Time;durP1;ratioP1;P1;durP2;ratioP2;P2;SDS_P1;SDS_P2;PMS_P1;PMS_P2;Temp;Humidity;BMP_temperature;BMP_pressure;BME280_temperature;BME280_humidity;BME280_pressure;Samples;Min_cycle;Max_cycle;Signal;HPM_P1;HPM_P2
2022/02/08 00:01:38;;;;;;;14.70;4.32;;;;;;;5.13;93.66;102667.75;5053493;28;20037;-35
2022/02/08 00:04:03;;;;;;;15.38;5.15;;;;;;;5.14;94.68;102669.41;5054126;28;20033;-36
2022/02/08 00:06:43;;;;;;;19.48;5.05;;;;;;;5.06;94.20;102654.06;5053758;28;20443;-36
2022/02/08 00:09:10;;;;;;;18.90;4.97;;;;;;;5.12;95.39;102656.19;5053976;28;20032;-36
2022/02/08 00:11:35;;;;;;;;;;;;;;;5.18;95.17;102662.78;5054609;28;20029;-35
2022/02/08 00:14:00;;;;;;;23.13;7.83;;;;;;;5.15;98.08;102666.59;5053421;28;19963;-36
2022/02/08 00:16:26;;;;;;;15.40;5.50;;;;;;;5.08;98.16;102649.41;5053765;28;20785;-35
2022/02/08 00:18:51;;;;;;;19.10;5.97;;;;;;;5.15;98.04;102642.44;5053887;28;20369;-35
2022/02/08 00:21:17;;;;;;;21.87;6.90;;;;;;;5.08;98.99;102627.97;5053953;28;20266;-35
2022/02/08 00:23:42;;;;;;;24.23;7.33;;;;;;;5.13;100.00;102641.75;5053960;28;20361;-35
2022/02/08 00:26:08;;;;;;;21.27;7.37;;;;;;;5.14;100.00;102631.88;5054091;28;20082;-35
2022/02/08 00:28:33;;;;;;;26.83;8.97;;;;;;;5.11;100.00;102635.69;5053661;28;20357;-35
2022/02/08 00:30:59;;;;;;;23.25;7.32;;;;;;;5.12;100.00;102623.13;5053142;28;20043;-35
2022/02/08 00:33:24;;;;;;;18.17;7.97;;;;;;;5.10;100.00;102634.00;5053927;28;20025;-35
2022/02/08 00:35:50;;;;;;;25.40;7.90;;;;;;;5.10;100.00;102639.38;5053626;28;20263;-35
2022/02/08 00:38:17;;;;;;;20.60;8.53;;;;;;;5.10;100.00;102625.13;5053593;28;20029;-35
2022/02/08 00:40:44;;;;;;;24.67;9.60;;;;;;;5.02;100.00;102616.97;5053344;28;20029;-35
2022/02/08 00:43:09;;;;;;;27.52;10.52;;;;;;;5.10;100.00;102625.13;5053142;28;20035;-35
2022/02/08 00:45:53;;;;;;;25.07;11.10;;;;;;;5.10;100.00;102619.75;5053320;28;20450;-34
2022/02/08 00:48:31;;;;;;;24.50;11.23;;;;;;;5.10;100.00;102620.59;5053729;28;20049;-34
2022/02/08 00:50:58;;;;;;;23.02;12.20;;;;;;;5.15;100.00;102626.34;5053377;28;20024;-35
2022/02/08 00:53:23;;;;;;;;;;;;;;;5.16;100.00;102629.88;5053541;28;20122;-35
2022/02/08 00:55:49;;;;;;;26.33;12.68;;;;;;;5.16;100.00;102628.03;5053641;28;19979;-36
2022/02/08 00:58:14;;;;;;;28.60;13.73;;;;;;;5.10;100.00;102617.91;5053550;28;20031;-35
2022/02/08 01:00:40;;;;;;;27.00;14.27;;;;;;;5.22;100.00;102633.78;5053322;28;20025;-35
2022/02/08 01:03:07;;;;;;;33.35;15.82;;;;;;;5.21;100.00;102635.63;5051894;28;20033;-35
2022/02/08 01:05:38;;;;;;;25.75;15.60;;;;;;;5.22;100.00;102621.25;5053002;28;20448;-35
2022/02/08 01:08:04;;;;;;;31.58;15.35;;;;;;;5.26;100.00;102633.31;5053013;28;20036;-34
2022/02/08 01:10:35;;;;;;;27.27;14.23;;;;;;;5.28;100.00;102628.66;5053427;28;20029;-36
2022/02/08 01:13:00;;;;;;;27.95;16.23;;;;;;;5.21;100.00;102616.84;5053786;28;20021;-35
2022/02/08 01:15:26;;;;;;;28.33;16.47;;;;;;;5.24;100.00;102608.50;5053709;28;20029;-35
2022/02/08 01:17:56;;;;;;;34.80;15.90;;;;;;;5.32;100.00;102619.31;5052877;28;20347;-35
2022/02/08 01:20:29;;;;;;;28.45;16.10;;;;;;;5.36;100.00;102619.84;5052758;28;20329;-35
2022/02/08 01:22:55;;;;;;;27.50;14.65;;;;;;;5.38;100.00;102624.06;5053002;28;20377;-35
2022/02/08 01:25:28;;;;;;;28.53;15.07;;;;;;;5.40;100.00;102627.44;5052807;28;20036;-35
2022/02/08 01:27:56;;;;;;;35.75;16.85;;;;;;;5.43;100.00;102626.31;5055380;28;20143;-35
2022/02/08 01:30:30;;;;;;;31.13;14.70;;;;;;;5.45;100.00;102626.97;5057543;28;20029;-35
2022/02/08 01:33:36;;;;;;;29.90;13.80;;;;;;;5.40;100.00;102608.66;5056967;28;20524;-36
2022/02/08 01:38:22;;;;;;;26.63;15.97;;;;;;;5.40;100.00;102600.59;5057032;28;20055;-34
2022/02/08 01:43:42;;;;;;;27.83;15.35;;;;;;;5.50;100.00;102622.00;5056661;28;20362;-36
2022/02/08 01:46:29;;;;;;;34.15;17.88;;;;;;;5.54;100.00;102625.22;5057360;28;20187;-36
2022/02/08 01:49:10;;;;;;;;;;;;;;;5.57;100.00;102630.28;5056893;28;20389;-34
2022/02/08 01:51:36;;;;;;;30.63;17.90;;;;;;;5.60;100.00;102629.97;5056454;28;19921;-35
2022/02/08 01:54:01;;;;;;;31.73;17.73;;;;;;;5.61;100.00;102634.31;5056364;28;20083;-35
2022/02/08 01:56:27;;;;;;;28.97;18.67;;;;;;;5.63;100.00;102633.19;5056907;28;20025;-35
2022/02/08 01:58:52;;;;;;;36.60;20.20;;;;;;;5.68;100.00;102633.56;5056251;28;20301;-35
2022/02/08 02:01:17;;;;;;;28.73;18.87;;;;;;;5.72;100.00;102635.94;5055015;28;20036;-35
2022/02/08 02:03:44;;;;;;;30.03;19.53;;;;;;;5.72;100.00;102639.47;5056541;28;20040;-35
2022/02/08 02:06:10;;;;;;;31.08;20.42;;;;;;;5.74;100.00;102636.63;5056138;28;20481;-35
2022/02/08 02:08:36;;;;;;;33.45;20.58;;;;;;;5.74;100.00;102626.72;5056373;28;20036;-35
2022/02/08 02:11:01;;;;;;;;;;;;;;;5.79;100.00;102629.78;5056481;28;20033;-35
2022/02/08 02:16:04;;;;;;;35.40;21.17;;;;;;;5.75;100.00;102609.59;5056096;28;20267;-35
2022/02/08 02:18:29;;;;;;;34.17;22.25;;;;;;;5.88;100.00;102622.63;5056265;28;20031;-35
2022/02/08 02:20:55;;;;;;;35.57;21.27;;;;;;;5.75;100.00;102588.13;5055577;28;20029;-35
2022/02/08 02:23:20;;;;;;;36.27;22.80;;;;;;;5.92;100.00;102613.31;5056576;28;20033;-35
2022/02/08 02:25:45;;;;;;;33.87;21.70;;;;;;;5.93;100.00;102623.88;5056012;28;20033;-35
2022/02/08 02:28:11;;;;;;;38.23;22.77;;;;;;;5.94;100.00;102614.81;5055791;28;20538;-35
2022/02/08 02:30:36;;;;;;;34.97;22.80;;;;;;;6.01;100.00;102622.28;5056040;28;20032;-35
2022/02/08 02:33:03;;;;;;;33.87;22.20;;;;;;;6.04;100.00;102627.31;5055572;28;20442;-35
2022/02/08 02:35:29;;;;;;;40.63;23.13;;;;;;;6.05;100.00;102620.94;5055861;28;20263;-35
2022/02/08 02:37:57;;;;;;;30.20;22.50;;;;;;;6.07;100.00;102624.31;5055337;28;20025;-35
2022/02/08 02:40:23;;;;;;;37.58;23.63;;;;;;;5.91;100.00;102584.75;5054278;28;20029;-35
2022/02/08 02:42:53;;;;;;;33.90;21.75;;;;;;;6.11;100.00;102605.03;5055611;28;20037;-35
2022/02/08 02:45:21;;;;;;;35.90;21.95;;;;;;;6.11;100.00;102614.94;5055984;28;20032;-35
2022/02/08 02:47:48;;;;;;;32.97;20.90;;;;;;;6.15;100.00;102605.56;5055162;28;20508;-35
2022/02/08 02:50:14;;;;;;;31.73;20.45;;;;;;;6.15;100.00;102621.69;5055806;28;20120;-35
2022/02/08 02:52:39;;;;;;;32.37;20.60;;;;;;;6.15;100.00;102617.16;5055461;28;20087;-35
2022/02/08 02:55:05;;;;;;;27.00;19.13;;;;;;;6.13;100.00;102608.41;5055625;28;20501;-35
2022/02/08 02:57:30;;;;;;;28.58;17.63;;;;;;;6.17;100.00;102617.81;5055753;28;20344;-35
2022/02/08 03:00:05;;;;;;;28.87;18.13;;;;;;;6.05;100.00;102594.94;5055496;28;20416;-35
2022/02/08 03:02:43;;;;;;;26.80;18.30;;;;;;;6.19;100.00;102618.50;5054907;28;20029;-35
2022/02/08 03:18:40;;;;;;;22.95;15.20;;;;;;;6.29;100.00;102604.13;5055360;28;20040;-35
2022/02/08 03:21:08;;;;;;;25.10;15.20;;;;;;;6.32;100.00;102617.25;5055163;28;20079;-35
2022/02/08 03:23:34;;;;;;;20.55;14.05;;;;;;;6.30;100.00;102628.16;5054814;28;20158;-35
2022/02/08 03:25:59;;;;;;;;;;;;;;;6.33;100.00;102619.75;5055362;28;20098;-35
2022/02/08 03:28:25;;;;;;;22.55;13.32;;;;;;;6.31;100.00;102627.16;5055046;28;20332;-35
2022/02/08 03:30:51;;;;;;;21.83;13.60;;;;;;;6.30;100.00;102630.84;5054601;28;20043;-35
2022/02/08 03:33:17;;;;;;;21.75;14.75;;;;;;;6.36;100.00;102634.75;5054390;28;20056;-35
2022/02/08 03:35:43;;;;;;;;;;;;;;;6.37;100.00;102631.03;5055291;28;20029;-35
2022/02/08 03:38:10;;;;;;;25.98;14.70;;;;;;;6.37;100.00;102626.50;5054737;28;19920;-35
2022/02/08 03:45:38;;;;;;;23.80;15.00;;;;;;;6.40;100.00;102628.88;5054716;28;20041;-35
2022/02/08 03:48:03;;;;;;;;;;;;;;;6.42;100.00;102632.25;5054402;28;20465;-35
2022/02/08 03:50:29;;;;;;;26.63;15.02;;;;;;;6.43;100.00;102627.72;5054297;28;19923;-35
2022/02/08 03:52:54;;;;;;;20.40;13.53;;;;;;;6.43;100.00;102633.91;5053907;28;20530;-35
2022/02/08 03:55:19;;;;;;;21.87;13.27;;;;;;;6.44;100.00;102641.00;5054217;28;20033;-35
2022/02/08 03:57:45;;;;;;;18.83;13.93;;;;;;;6.46;100.00;102635.47;5054173;28;20036;-33
2022/02/08 04:00:10;;;;;;;27.20;14.53;;;;;;;6.41;100.00;102622.50;5054122;28;20024;-34
2022/02/08 04:02:43;;;;;;;18.80;13.48;;;;;;;6.48;100.00;102628.06;5054037;28;20039;-34
2022/02/08 04:05:20;;;;;;;19.63;14.07;;;;;;;6.52;100.00;102633.97;5054197;28;20049;-35
2022/02/08 04:07:51;;;;;;;18.75;13.27;;;;;;;6.53;100.00;102638.34;5053614;28;20025;-35
2022/02/08 04:10:25;;;;;;;19.67;12.20;;;;;;;6.44;100.00;102626.69;5053883;28;20032;-35
2022/02/08 04:15:40;;;;;;;17.80;13.50;;;;;;;6.55;100.00;102630.97;5053812;28;20029;-35
2022/02/08 04:18:21;;;;;;;20.98;12.27;;;;;;;6.56;100.00;102644.25;5053970;28;20029;-35
2022/02/08 04:44:30;;;;;;;18.35;14.30;;;;;;;6.63;100.00;102625.63;5053908;28;20033;-35
2022/02/08 04:49:21;;;;;;;15.30;13.57;;;;;;;6.69;100.00;102631.22;5053175;28;20447;-35
2022/02/08 04:51:51;;;;;;;18.00;13.43;;;;;;;6.69;100.00;102627.69;5052975;28;20029;-35
2022/02/08 04:59:34;;;;;;;18.88;14.75;;;;;;;6.70;100.00;102629.34;5053034;28;20064;-35
2022/02/08 05:02:17;;;;;;;16.00;13.77;;;;;;;6.70;100.00;102616.75;5053032;28;20107;-35
2022/02/08 05:41:10;;;;;;;19.92;16.77;;;;;;;6.84;100.00;102612.59;5050265;28;20037;-35
2022/02/08 05:44:12;;;;;;;18.27;16.38;;;;;;;6.84;100.00;102598.31;5050267;28;20366;-36
2022/02/08 05:48:43;;;;;;;19.05;17.05;;;;;;;6.76;100.00;102588.38;5050417;28;20517;-35
2022/02/08 05:51:16;;;;;;;19.23;16.42;;;;;;;6.74;100.00;102578.81;5050228;28;20059;-35
2022/02/08 05:53:45;;;;;;;19.73;16.38;;;;;;;6.86;100.00;102605.19;5050225;28;20132;-35
2022/02/08 05:56:13;;;;;;;17.42;14.40;;;;;;;6.88;100.00;102607.72;5050645;28;20041;-35
2022/02/08 05:58:41;;;;;;;18.98;16.52;;;;;;;6.80;100.00;102600.47;5050101;28;20179;-35
2022/02/08 06:01:07;;;;;;;17.55;15.65;;;;;;;6.89;100.00;102609.44;5050107;28;20033;-35
2022/02/08 06:03:32;;;;;;;20.88;15.40;;;;;;;6.88;100.00;102608.59;5050372;28;20106;-35
2022/02/08 06:05:58;;;;;;;17.27;15.50;;;;;;;6.87;100.00;102609.56;5050805;28;20124;-35
2022/02/08 06:08:23;;;;;;;18.37;16.17;;;;;;;6.90;100.00;102598.50;5050070;28;20040;-35
2022/02/08 06:13:41;;;;;;;18.08;15.90;;;;;;;6.91;100.00;102602.88;5036155;28;20176;-35
2022/02/08 06:16:11;;;;;;;17.90;16.00;;;;;;;6.92;100.00;102599.16;5054290;28;20119;-35
2022/02/08 06:18:36;;;;;;;18.25;16.33;;;;;;;6.85;100.00;102584.69;5056077;28;20032;-35
2022/02/08 06:21:02;;;;;;;19.42;16.77;;;;;;;6.93;100.00;102603.56;5056165;28;20484;-35
2022/02/08 06:23:27;;;;;;;18.40;16.40;;;;;;;6.96;100.00;102607.75;5056384;28;20484;-35
2022/02/08 06:25:53;;;;;;;21.90;16.53;;;;;;;6.90;100.00;102593.13;5056071;28;20465;-35
2022/02/08 06:28:21;;;;;;;18.85;16.42;;;;;;;6.91;100.00;102596.66;5055482;28;20031;-35
2022/02/08 06:30:47;;;;;;;19.13;16.75;;;;;;;6.99;100.00;102612.81;5056369;28;20056;-35
2022/02/08 06:33:14;;;;;;;18.20;16.08;;;;;;;7.02;100.00;102619.69;5055685;28;20035;-35
2022/02/08 06:35:39;;;;;;;18.23;16.27;;;;;;;7.01;100.00;102615.34;5055869;28;20384;-35
2022/02/08 06:38:09;;;;;;;21.75;18.48;;;;;;;7.03;100.00;102624.06;5055609;28;20135;-35
2022/02/08 06:40:36;;;;;;;22.80;18.17;;;;;;;6.88;100.00;102603.22;5056498;28;20040;-35
2022/02/08 06:43:03;;;;;;;19.52;17.02;;;;;;;7.03;100.00;102613.31;5055605;28;20063;-36
2022/02/08 06:45:29;;;;;;;22.65;18.00;;;;;;;6.99;100.00;102609.28;5055777;28;20458;-36
2022/02/08 06:47:54;;;;;;;20.15;17.90;;;;;;;7.03;100.00;102611.50;5055387;28;20072;-36
2022/02/08 06:50:20;;;;;;;20.45;17.48;;;;;;;6.93;100.00;102598.19;5056069;28;20052;-36
2022/02/08 06:52:46;;;;;;;21.27;16.90;;;;;;;7.04;100.00;102621.22;5055322;28;20416;-36
2022/02/08 06:55:12;;;;;;;21.55;18.55;;;;;;;7.06;100.00;102615.69;5055121;28;20071;-35
2022/02/08 06:57:49;;;;;;;24.20;19.52;;;;;;;7.02;100.00;102612.47;5055758;28;20036;-35
2022/02/08 07:00:20;;;;;;;25.42;19.15;;;;;;;7.10;100.00;102633.19;5055254;28;20029;-35
2022/02/08 07:02:46;;;;;;;21.73;19.10;;;;;;;7.10;100.00;102633.19;5055250;28;20104;-36
2022/02/08 07:05:11;;;;;;;21.97;18.47;;;;;;;7.11;100.00;102634.84;5055784;28;20120;-35
2022/02/08 07:07:36;;;;;;;27.77;18.60;;;;;;;7.06;100.00;102632.66;5054853;28;20465;-36
2022/02/08 07:10:03;;;;;;;20.17;16.70;;;;;;;7.09;100.00;102634.19;5055788;28;20123;-34
2022/02/08 07:12:28;;;;;;;21.88;17.60;;;;;;;7.14;100.00;102648.00;5054906;28;20036;-34
2022/02/08 07:14:55;;;;;;;21.50;16.48;;;;;;;7.08;100.00;102630.66;5055274;28;20029;-34
2022/02/08 07:17:20;;;;;;;;;;;;;;;7.16;100.00;102641.44;5055061;28;20032;-35
2022/02/08 07:19:45;;;;;;;26.37;17.60;;;;;;;7.14;100.00;102638.06;5054803;28;20423;-34
2022/02/08 07:22:11;;;;;;;23.90;17.33;;;;;;;7.13;100.00;102647.16;5054824;28;20075;-34
2022/02/08 07:24:36;;;;;;;24.33;18.47;;;;;;;7.18;100.00;102646.66;5054105;28;20049;-35
2022/02/08 07:27:01;;;;;;;21.73;17.80;;;;;;;7.18;100.00;102647.50;5054717;28;20025;-34
2022/02/08 07:29:28;;;;;;;21.60;17.73;;;;;;;7.20;100.00;102644.63;5055207;28;20105;-35
2022/02/08 07:31:58;;;;;;;23.33;17.50;;;;;;;7.21;100.00;102657.06;5054754;28;20111;-35
2022/02/08 07:34:38;;;;;;;22.17;17.65;;;;;;;7.21;100.00;102652.53;5054592;28;20036;-35
2022/02/08 07:37:12;;;;;;;25.17;18.98;;;;;;;7.25;100.00;102653.06;5054467;28;20060;-35
2022/02/08 07:39:46;;;;;;;26.33;18.55;;;;;;;7.26;100.00;102651.19;5055106;28;20086;-35
2022/02/08 07:42:11;;;;;;;23.00;18.10;;;;;;;7.18;100.00;102631.34;5054444;28;20025;-35
2022/02/08 07:44:36;;;;;;;24.80;18.75;;;;;;;7.21;100.00;102638.25;5054689;28;20048;-35
2022/02/08 07:47:02;;;;;;;22.37;18.53;;;;;;;7.23;100.00;102636.25;5054052;28;20029;-36
2022/02/08 07:49:28;;;;;;;21.23;17.30;;;;;;;7.33;100.00;102655.78;5053943;28;20226;-35
2022/02/08 07:51:53;;;;;;;22.00;18.50;;;;;;;7.33;100.00;102654.94;5054253;28;20079;-36
2022/02/08 07:54:19;;;;;;;21.80;17.65;;;;;;;7.33;100.00;102644.16;5054280;28;20044;-35
2022/02/08 07:56:44;;;;;;;23.23;18.17;;;;;;;7.23;100.00;102641.63;5053860;28;20021;-35
2022/02/08 07:59:09;;;;;;;21.97;17.03;;;;;;;7.38;100.00;102664.19;5054057;28;20029;-35
2022/02/08 08:01:35;;;;;;;19.43;16.23;;;;;;;7.39;100.00;102665.88;5053876;28;20037;-35
2022/02/08 08:04:00;;;;;;;24.40;16.40;;;;;;;7.41;100.00;102657.63;5054334;28;20021;-35
2022/02/08 08:06:25;;;;;;;20.03;15.50;;;;;;;7.44;100.00;102674.28;5054013;28;20025;-35
2022/02/08 08:08:52;;;;;;;23.85;16.10;;;;;;;7.48;100.00;102674.81;5053939;28;20074;-34
2022/02/08 08:11:21;;;;;;;21.77;14.70;;;;;;;7.51;100.00;102673.63;5054063;28;20024;-35
2022/02/08 08:14:00;;;;;;;20.30;14.25;;;;;;;7.49;100.00;102666.56;5053919;28;20061;-35
2022/02/08 08:16:40;;;;;;;21.00;14.75;;;;;;;7.55;100.00;102680.34;5053947;28;20025;-34
2022/02/08 08:19:22;;;;;;;18.15;13.73;;;;;;;7.56;100.00;102671.25;5053572;28;20037;-35
2022/02/08 08:21:48;;;;;;;21.42;13.45;;;;;;;7.59;100.00;102676.31;5054176;28;20094;-35
2022/02/08 08:24:14;;;;;;;16.80;13.60;;;;;;;7.61;100.00;102685.06;5053331;28;20037;-35
2022/02/08 08:26:40;;;;;;;16.73;12.63;;;;;;;7.64;100.00;102684.75;5054227;28;20039;-35
2022/02/08 08:29:06;;;;;;;;;;;;;;;7.65;100.00;102687.25;5054052;28;20029;-35
2022/02/08 08:31:31;;;;;;;14.60;11.68;;;;;;;7.60;100.00;102672.63;5053634;28;19916;-35
2022/02/08 08:33:57;;;;;;;17.08;11.55;;;;;;;7.69;100.00;102690.47;5052130;28;20037;-35
2022/02/08 08:36:22;;;;;;;14.80;11.90;;;;;;;7.70;100.00;102698.38;5053314;28;20039;-35
2022/02/08 08:38:51;;;;;;;14.68;11.35;;;;;;;7.66;100.00;102678.19;5053351;28;20043;-35
2022/02/08 08:51:52;;;;;;;16.10;10.53;;;;;;;7.72;100.00;102668.59;5051289;28;20183;-35
2022/02/08 08:54:19;;;;;;;16.42;10.63;;;;;;;7.86;100.00;102697.56;5050894;28;20590;-36
2022/02/08 08:56:46;;;;;;;17.63;10.68;;;;;;;7.91;100.00;102697.91;5051200;28;20041;-36
2022/02/08 08:59:13;;;;;;;16.83;10.10;;;;;;;7.93;100.00;102695.03;5051177;28;20115;-36
2022/02/08 09:01:39;;;;;;;13.93;9.65;;;;;;;7.89;100.00;102682.91;5051046;28;20037;-35
2022/02/08 09:04:06;;;;;;;12.48;9.10;;;;;;;8.00;100.00;102701.41;5051100;28;20060;-36
2022/02/08 09:06:33;;;;;;;15.52;9.88;;;;;;;8.04;100.00;102708.16;5050737;28;20025;-36
2022/02/08 09:08:59;;;;;;;16.77;10.00;;;;;;;8.05;100.00;102695.53;5050620;28;20051;-36
2022/02/08 09:14:11;;;;;;;14.52;8.27;;;;;;;8.13;100.00;102706.31;5050736;28;20043;-36
2022/02/08 09:22:09;;;;;;;14.07;7.40;;;;;;;8.24;100.00;102705.94;5050900;28;20056;-36
2022/02/08 09:30:00;;;;;;;12.32;7.85;;;;;;;8.36;100.00;102712.72;5053117;28;20044;-36
2022/02/08 09:32:40;;;;;;;12.63;6.57;;;;;;;8.37;100.00;102714.41;5053369;28;20029;-36
2022/02/08 09:35:09;;;;;;;15.43;7.28;;;;;;;8.41;100.00;102704.97;5052591;28;20025;-36
2022/02/08 09:37:36;;;;;;;12.55;7.32;;;;;;;8.42;100.00;102703.94;5052737;28;20108;-35
2022/02/08 09:40:04;;;;;;;16.63;7.63;;;;;;;8.45;100.00;102697.38;5052962;28;20029;-36
2022/02/08 09:42:29;;;;;;;13.73;6.75;;;;;;;8.47;100.00;102693.47;5052666;28;20056;-36
2022/02/08 09:44:55;;;;;;;16.60;6.97;;;;;;;8.41;100.00;102679.84;5051698;28;20067;-36
2022/02/08 09:47:31;;;;;;;13.50;7.03;;;;;;;8.52;100.00;102685.72;5052725;28;20480;-36
2022/02/08 09:50:03;;;;;;;13.50;6.37;;;;;;;8.57;100.00;102681.66;5056732;28;20057;-35
2022/02/08 09:52:29;;;;;;;15.68;6.53;;;;;;;8.60;100.00;102682.16;5057059;28;20403;-35
2022/02/08 09:54:54;;;;;;;12.60;5.57;;;;;;;8.63;100.00;102676.41;5056909;28;20029;-35
2022/02/08 09:57:19;;;;;;;14.97;6.23;;;;;;;8.68;100.00;102683.97;5056197;28;20299;-35
2022/02/08 09:59:46;;;;;;;15.77;6.80;;;;;;;8.73;100.00;102687.00;5057028;28;20082;-35
2022/02/08 10:02:17;;;;;;;12.90;5.50;;;;;;;8.67;100.00;102680.44;5056171;28;20025;-35
2022/02/08 10:04:42;;;;;;;13.25;5.28;;;;;;;8.81;100.00;102692.38;5056381;28;20021;-35
2022/02/08 10:07:12;;;;;;;9.77;4.77;;;;;;;8.83;100.00;102697.59;5056357;28;20025;-35
2022/02/08 10:09:38;;;;;;;9.05;4.70;;;;;;;8.87;100.00;102693.53;5056226;28;20127;-35
2022/02/08 10:12:04;;;;;;;9.38;4.38;;;;;;;8.92;100.00;102693.84;5056053;28;20029;-36
2022/02/08 10:14:54;;;;;;;11.07;4.80;;;;;;;8.97;100.00;102696.84;5055699;28;20025;-36
2022/02/08 10:23:05;;;;;;;11.63;4.20;;;;;;;9.14;100.00;102673.34;5054300;28;20120;-35
2022/02/08 10:26:00;;;;;;;9.10;4.53;;;;;;;9.19;100.00;102679.06;5054351;28;20525;-35
2022/02/08 10:28:42;;;;;;;11.45;4.07;;;;;;;9.23;100.00;102678.53;5053779;28;20445;-35
2022/02/08 10:31:26;;;;;;;10.48;3.83;;;;;;;9.27;100.00;102684.38;5053970;28;20552;-35
2022/02/08 10:39:25;;;;;;;11.85;3.90;;;;;;;9.43;99.13;102695.13;5053637;28;20127;-36
2022/02/08 10:41:50;;;;;;;8.95;3.22;;;;;;;9.41;99.76;102686.34;5053993;28;20465;-36
2022/02/08 10:44:16;;;;;;;12.17;4.70;;;;;;;9.46;98.92;102683.94;5053538;28;20067;-36
2022/02/08 10:46:42;;;;;;;10.90;3.78;;;;;;;9.58;99.16;102695.19;5036414;28;20128;-36
2022/02/08 10:49:15;;;;;;;9.15;3.00;;;;;;;9.61;97.32;102691.25;5053458;28;20084;-36
2022/02/08 10:51:52;;;;;;;15.15;3.63;;;;;;;9.64;97.41;102689.06;5053328;28;20381;-35
2022/02/08 10:54:27;;;;;;;6.82;2.88;;;;;;;9.67;96.83;102680.59;5053508;28;20041;-35
2022/02/08 10:57:01;;;;;;;8.70;3.05;;;;;;;9.72;96.48;102677.38;5052897;28;20029;-35
2022/02/08 10:59:34;;;;;;;7.10;2.78;;;;;;;9.77;96.92;102691.16;5039918;28;20043;-35
2022/02/08 11:02:08;;;;;;;11.48;2.92;;;;;;;9.82;96.28;102688.75;5055303;28;20068;-35
2022/02/08 11:04:50;;;;;;;6.63;2.63;;;;;;;9.84;95.20;102681.31;5055465;28;20090;-35
2022/02/08 11:07:41;;;;;;;8.27;2.70;;;;;;;9.88;95.69;102682.63;5055423;28;20029;-35
2022/02/08 11:12:52;;;;;;;7.22;2.50;;;;;;;9.94;94.81;102687.28;5055399;28;20041;-35
2022/02/08 11:15:39;;;;;;;12.30;3.05;;;;;;;9.94;94.24;102679.19;5055058;28;20052;-35
2022/02/08 11:20:43;;;;;;;10.30;2.58;;;;;;;9.95;94.60;102678.16;5055177;28;20044;-36
2022/02/08 11:23:25;;;;;;;7.63;2.13;;;;;;;9.97;94.70;102673.44;5055123;28;20074;-35
2022/02/08 11:25:53;;;;;;;7.55;2.47;;;;;;;9.98;94.52;102683.22;5055347;28;20024;-35
2022/02/08 11:31:01;;;;;;;12.60;2.78;;;;;;;9.98;93.75;102669.69;5055192;28;20075;-35
2022/02/08 11:56:17;;;;;;;9.07;2.20;;;;;;;9.96;91.64;102608.75;5052010;28;20064;-36
2022/02/08 11:59:20;;;;;;;6.90;2.25;;;;;;;10.24;89.56;102653.09;5052063;28;20151;-35
2022/02/08 12:07:02;;;;;;;4.20;1.85;;;;;;;10.40;87.79;102648.56;5051628;28;20481;-35
2022/02/08 12:33:57;;;;;;;7.90;1.38;;;;;;;10.65;83.68;102643.69;5054185;28;20033;-36
2022/02/08 12:56:09;;;;;;;7.07;1.90;;;;;;;10.70;81.76;102652.94;5031378;28;20122;-36
2022/02/08 12:59:10;;;;;;;4.22;1.27;;;;;;;10.70;82.34;102660.22;5030831;28;20041;-36
2022/02/08 14:09:31;;;;;;;6.65;1.63;;;;;;;10.39;82.98;102654.97;5056616;28;20033;-35
2022/02/08 14:22:51;;;;;;;6.45;1.40;;;;;;;10.38;84.15;102678.47;5033983;28;20061;-35
2022/02/08 14:25:45;;;;;;;10.38;1.80;;;;;;;10.37;84.18;102682.19;5033833;28;20049;-35
2022/02/08 14:57:45;;;;;;;5.40;1.45;;;;;;;10.44;83.37;102661.53;5033641;28;20045;-35
2022/02/08 15:00:19;;;;;;;5.40;1.25;;;;;;;10.38;84.48;102658.69;5033438;28;20037;-35
2022/02/08 15:05:40;;;;;;;6.15;1.73;;;;;;;10.44;83.71;102666.06;5033451;28;20048;-35
2022/02/08 15:10:48;;;;;;;7.93;1.63;;;;;;;10.41;84.75;102663.75;5042599;28;20051;-36
2022/02/08 15:13:16;;;;;;;6.32;1.35;;;;;;;10.23;85.29;102654.09;5055049;28;20025;-35
2022/02/08 15:18:07;;;;;;;7.13;1.80;;;;;;;10.33;85.09;102670.06;5055011;28;20574;-35
2022/02/08 15:20:33;;;;;;;9.57;2.00;;;;;;;10.31;84.91;102678.38;5054877;28;20045;-35
2022/02/08 15:23:00;;;;;;;8.60;2.10;;;;;;;10.23;85.00;102661.34;5055152;28;20271;-35
2022/02/08 15:25:27;;;;;;;6.90;1.60;;;;;;;10.28;85.33;102683.31;5054834;28;20490;-36
2022/02/08 15:27:53;;;;;;;8.75;1.95;;;;;;;10.26;85.68;102677.25;5054866;28;20029;-35
2022/02/08 15:30:19;;;;;;;3.90;1.52;;;;;;;10.14;86.42;102678.69;5054812;28;20466;-35
2022/02/08 15:32:46;;;;;;;16.13;2.38;;;;;;;10.21;86.76;102690.47;5054459;28;20029;-36
2022/02/08 15:35:11;;;;;;;10.23;2.00;;;;;;;10.16;86.72;102682.06;5055150;28;20466;-36
2022/02/08 15:37:37;;;;;;;7.67;2.87;;;;;;;10.14;87.24;102692.19;5054647;28;20040;-36
2022/02/08 15:40:06;;;;;;;9.00;2.95;;;;;;;10.02;88.17;102684.53;5053258;28;20451;-36
2022/02/08 15:42:33;;;;;;;9.38;3.42;;;;;;;10.05;88.68;102686.88;5054806;28;20025;-36
2022/02/08 15:45:09;;;;;;;7.57;3.35;;;;;;;10.03;88.77;102688.06;5054167;28;20064;-35
2022/02/08 15:47:35;;;;;;;11.27;4.03;;;;;;;10.00;88.88;102683.88;5054378;28;20025;-36
2022/02/08 15:50:08;;;;;;;9.17;4.00;;;;;;;9.83;89.24;102663.41;5054613;28;20043;-35
2022/02/08 15:55:43;;;;;;;8.15;4.13;;;;;;;9.91;89.70;102676.03;5054903;28;20065;-35
2022/02/08 15:58:22;;;;;;;10.07;4.28;;;;;;;9.89;89.41;102681.59;5055002;28;20100;-35
2022/02/08 16:09:10;;;;;;;11.20;3.97;;;;;;;9.75;89.33;102653.50;5054091;28;20040;-35
2022/02/08 16:11:48;;;;;;;9.02;4.35;;;;;;;9.86;89.25;102676.56;5054591;28;20036;-37
2022/02/08 16:16:56;;;;;;;7.93;3.70;;;;;;;9.82;89.11;102679.81;5054288;28;19909;-35
2022/02/08 16:24:49;;;;;;;8.02;4.20;;;;;;;9.80;89.35;102682.69;5053801;28;20101;-36
2022/02/08 16:30:34;;;;;;;9.80;4.47;;;;;;;9.62;89.24;102664.09;5053770;28;20044;-35
2022/02/08 16:56:52;;;;;;;9.95;4.05;;;;;;;9.67;89.74;102690.56;5053534;28;20389;-36
2022/02/08 16:59:33;;;;;;;6.38;3.67;;;;;;;9.62;89.64;102696.50;5053056;28;20143;-36
2022/02/08 17:02:02;;;;;;;8.45;4.18;;;;;;;9.62;89.59;102707.31;5053515;28;20410;-36
2022/02/08 17:04:27;;;;;;;11.32;4.00;;;;;;;9.60;90.41;102706.63;5052840;28;20055;-36
2022/02/08 17:06:53;;;;;;;6.70;3.47;;;;;;;9.54;90.12;102710.91;5053460;28;20028;-36
2022/02/08 17:12:05;;;;;;;8.52;2.83;;;;;;;9.61;89.78;102720.97;5053676;28;20032;-35
2022/02/08 17:14:49;;;;;;;9.25;3.40;;;;;;;9.46;89.56;102699.31;5053641;28;20086;-35
2022/02/08 17:49:36;;;;;;;14.02;8.30;;;;;;;9.54;88.90;102754.13;4990832;28;20054;-36
2022/02/08 17:52:01;;;;;;;8.83;5.00;;;;;;;9.55;89.06;102757.66;4991071;28;20467;-36
2022/02/08 17:54:27;;;;;;;8.80;4.67;;;;;;;9.52;89.07;102756.16;4991202;28;20281;-36
2022/02/08 17:56:54;;;;;;;7.23;3.97;;;;;;;9.51;89.34;102753.63;4982772;28;20271;-36
2022/02/08 17:59:24;;;;;;;7.88;3.90;;;;;;;9.49;89.72;102747.56;4971493;28;20046;-36
2022/02/08 18:01:50;;;;;;;7.22;3.78;;;;;;;9.46;89.76;102754.16;4972203;28;20460;-36
2022/02/08 18:04:16;;;;;;;5.72;3.72;;;;;;;9.45;89.63;102747.06;4983615;28;20044;-36
2022/02/08 18:06:41;;;;;;;7.53;3.87;;;;;;;9.44;89.35;102745.41;5052718;28;20033;-36
2022/02/08 18:09:06;;;;;;;8.07;4.70;;;;;;;9.43;89.51;102749.13;5053665;28;20039;-36
2022/02/08 18:11:38;;;;;;;8.37;4.43;;;;;;;9.42;88.66;102746.56;5055553;28;20033;-36
2022/02/08 18:14:06;;;;;;;8.13;4.00;;;;;;;9.40;89.68;102746.75;5056071;28;20520;-36
2022/02/08 18:16:34;;;;;;;9.43;4.22;;;;;;;9.39;89.47;102747.78;5055549;28;20354;-36
2022/02/08 18:19:08;;;;;;;6.47;3.75;;;;;;;9.39;89.45;102750.50;5056646;28;20052;-36
2022/02/08 18:21:38;;;;;;;7.20;4.15;;;;;;;9.35;89.99;102735.66;5055804;28;20032;-36
2022/02/08 19:06:02;;;;;;;6.20;3.58;;;;;;;9.07;90.76;102731.72;5053203;28;20106;-35